Time,TemperatureF,DewpointF,PressureIn,WindDirection,WindDirectionDegrees,WindSpeedMPH,WindSpeedGustMPH,Humidity,HourlyPrecipIn,Conditions,Clouds,dailyrainin,SoftwareType,DateUTC
2013-07-25 00:04:00,56.0,52.0,30.03,NNW,335,3.0,-999.0,86,-99.99,,,0.00,weatherlink.com 1.10,2013-07-25 04:04:00,
2013-07-25 00:19:00,56.3,52.0,30.03,North,351,0.0,-999.0,85,-99.99,,,0.00,weatherlink.com 1.10,2013-07-25 04:19:00,
2013-07-25 00:34:00,55.9,52.0,30.03,North,355,0.0,-999.0,85,-99.99,,,0.00,weatherlink.com 1.10,2013-07-25 04:34:00,
2013-07-25 00:49:00,55.3,51.0,30.03,North,355,0.0,-999.0,86,-99.99,,,0.00,weatherlink.com 1.10,2013-07-25 04:49:00,
2013-07-25 01:04:00,54.1,50.0,30.03,North,355,0.0,-999.0,87,-99.99,,,0.00,weatherlink.com 1.10,2013-07-25 05:04:00,
2013-07-25 01:19:00,53.1,50.0,30.03,North,355,0.0,-999.0,89,-99.99,,,0.00,weatherlink.com 1.10,2013-07-25 05:19:00,
2013-07-25 01:34:00,52.3,50.0,30.03,North,355,0.0,-999.0,90,-99.99,,,0.00,weatherlink.com 1.10,2013-07-25 05:34:00,
2013-07-25 01:49:00,51.8,49.0,30.03,North,355,0.0,-999.0,91,-99.99,,,0.00,weatherlink.com 1.10,2013-07-25 05:49:00,
2013-07-25 02:04:00,51.3,49.0,30.03,North,355,0.0,-999.0,91,-99.99,,,0.00,weatherlink.com 1.10,2013-07-25 06:04:00,
2013-07-25 02:19:00,50.6,48.0,30.03,North,355,0.0,-999.0,92,-99.99,,,0.00,weatherlink.com 1.10,2013-07-25 06:19:00,
2013-07-25 02:34:00,50.8,49.0,30.03,North,355,0.0,-999.0,93,-99.99,,,0.00,weatherlink.com 1.10,2013-07-25 06:34:00,
2013-07-25 02:49:00,51.5,50.0,30.03,North,355,0.0,-999.0,94,-99.99,,,0.00,weatherlink.com 1.10,2013-07-25 06:49:00,
2013-07-25 03:04:00,51.6,49.0,30.03,North,355,0.0,-999.0,92,-99.99,,,0.00,weatherlink.com 1.10,2013-07-25 07:04:00,
2013-07-25 03:19:00,50.6,48.0,30.03,North,355,0.0,-999.0,92,-99.99,,,0.00,weatherlink.com 1.10,2013-07-25 07:19:00,
2013-07-25 03:34:00,49.8,48.0,30.03,North,355,0.0,-999.0,92,-99.99,,,0.00,weatherlink.com 1.10,2013-07-25 07:34:00,
2013-07-25 03:49:00,49.3,47.0,30.02,North,355,0.0,-999.0,93,-99.99,,,0.00,weatherlink.com 1.10,2013-07-25 07:49:00,
2013-07-25 04:04:00,48.9,47.0,30.03,North,355,0.0,-999.0,94,-99.99,,,0.00,weatherlink.com 1.10,2013-07-25 08:04:00,
2013-07-25 04:19:00,48.8,47.0,30.03,North,355,0.0,-999.0,94,-99.99,,,0.00,weatherlink.com 1.10,2013-07-25 08:19:00,
2013-07-25 04:34:00,48.6,47.0,30.03,North,355,0.0,-999.0,94,-99.99,,,0.00,weatherlink.com 1.10,2013-07-25 08:34:00,
2013-07-25 04:49:00,48.4,47.0,30.03,North,355,0.0,-999.0,94,-99.99,,,0.00,weatherlink.com 1.10,2013-07-25 08:49:00,
2013-07-25 05:04:00,49.2,48.0,30.04,North,355,0.0,-999.0,96,-99.99,,,0.00,weatherlink.com 1.10,2013-07-25 09:04:00,
2013-07-25 05:19:00,51.7,51.0,30.04,North,355,0.0,-999.0,97,-99.99,,,0.00,weatherlink.com 1.10,2013-07-25 09:19:00,
2013-07-25 05:34:00,52.4,51.0,30.04,North,355,0.0,-999.0,95,-99.99,,,0.00,weatherlink.com 1.10,2013-07-25 09:34:00,
2013-07-25 05:49:00,51.8,50.0,30.05,North,355,0.0,-999.0,94,-99.99,,,0.00,weatherlink.com 1.10,2013-07-25 09:49:00,
2013-07-25 06:04:00,50.1,48.0,30.05,North,355,0.0,-999.0,92,-99.99,,,0.00,weatherlink.com 1.10,2013-07-25 10:04:00,
2013-07-25 06:19:00,49.0,47.0,30.05,North,355,0.0,-999.0,93,-99.99,,,0.00,weatherlink.com 1.10,2013-07-25 10:19:00,
2013-07-25 06:34:00,48.4,47.0,30.05,North,355,0.0,-999.0,94,-99.99,,,0.00,weatherlink.com 1.10,2013-07-25 10:34:00,
2013-07-25 06:49:00,49.2,48.0,30.05,North,355,0.0,-999.0,95,-99.99,,,0.00,weatherlink.com 1.10,2013-07-25 10:49:00,
2013-07-25 07:04:00,50.3,49.0,30.06,North,355,0.0,-999.0,95,-99.99,,,0.00,weatherlink.com 1.10,2013-07-25 11:04:00,
2013-07-25 07:19:00,52.4,51.0,30.06,East,89,0.0,-999.0,96,-99.99,,,0.00,weatherlink.com 1.10,2013-07-25 11:19:00,
2013-07-25 07:34:00,54.3,53.0,30.06,East,89,0.0,-999.0,95,-99.99,,,0.00,weatherlink.com 1.10,2013-07-25 11:34:00,
2013-07-25 07:49:00,55.6,54.0,30.06,East,89,0.0,-999.0,93,-99.99,,,0.00,weatherlink.com 1.10,2013-07-25 11:49:00,
2013-07-25 08:04:00,57.5,54.0,30.07,East,89,0.0,-999.0,89,-99.99,,,0.00,weatherlink.com 1.10,2013-07-25 12:04:00,
2013-07-25 08:19:00,59.6,56.0,30.07,East,89,0.0,-999.0,86,-99.99,,,0.00,weatherlink.com 1.10,2013-07-25 12:19:00,
2013-07-25 08:34:00,61.0,56.0,30.07,ESE,108,0.0,-999.0,82,-99.99,,,0.00,weatherlink.com 1.10,2013-07-25 12:34:00,
2013-07-25 08:49:00,61.8,56.0,30.07,SE,136,0.0,-999.0,82,-99.99,,,0.00,weatherlink.com 1.10,2013-07-25 12:49:00,
2013-07-25 09:04:00,62.7,56.0,30.07,South,186,2.0,-999.0,80,-99.99,,,0.00,weatherlink.com 1.10,2013-07-25 13:04:00,
2013-07-25 09:19:00,64.0,57.0,30.08,South,186,0.0,-999.0,77,-99.99,,,0.00,weatherlink.com 1.10,2013-07-25 13:19:00,
2013-07-25 09:34:00,65.2,57.0,30.08,SW,228,4.0,-999.0,74,-99.99,,,0.00,weatherlink.com 1.10,2013-07-25 13:34:00,
2013-07-25 09:49:00,66.4,58.0,30.08,SW,217,0.0,-999.0,73,-99.99,,,0.00,weatherlink.com 1.10,2013-07-25 13:49:00,
2013-07-25 10:04:00,67.6,57.0,30.08,SSW,202,6.0,-999.0,68,-99.99,,,0.00,weatherlink.com 1.10,2013-07-25 14:04:00,
2013-07-25 10:19:00,69.1,57.0,30.07,SSW,209,5.0,-999.0,66,-99.99,,,0.00,weatherlink.com 1.10,2013-07-25 14:19:00,
2013-07-25 10:34:00,69.3,56.0,30.07,SSW,211,0.0,-999.0,63,-99.99,,,0.00,weatherlink.com 1.10,2013-07-25 14:34:00,
2013-07-25 10:49:00,69.8,55.0,30.08,WSW,239,1.0,-999.0,60,-99.99,,,0.00,weatherlink.com 1.10,2013-07-25 14:49:00,
2013-07-25 11:04:00,70.5,57.0,30.07,SSW,194,1.0,-999.0,62,-99.99,,,0.00,weatherlink.com 1.10,2013-07-25 15:04:00,
2013-07-25 11:19:00,71.6,54.0,30.07,SW,232,0.0,-999.0,54,-99.99,,,0.00,weatherlink.com 1.10,2013-07-25 15:19:00,
2013-07-25 11:34:00,72.2,55.0,30.07,SSW,203,0.0,-999.0,56,-99.99,,,0.00,weatherlink.com 1.10,2013-07-25 15:34:00,
2013-07-25 11:49:00,73.0,55.0,30.07,West,265,0.0,-999.0,53,-99.99,,,0.00,weatherlink.com 1.10,2013-07-25 15:49:00,
2013-07-25 12:04:00,73.2,56.0,30.08,South,188,7.0,-999.0,56,-99.99,,,0.00,weatherlink.com 1.10,2013-07-25 16:04:00,
2013-07-25 12:19:00,73.9,55.0,30.08,SW,218,0.0,-999.0,51,-99.99,,,0.00,weatherlink.com 1.10,2013-07-25 16:19:00,
2013-07-25 12:34:00,73.3,54.0,30.07,West,281,4.0,-999.0,52,-99.99,,,0.00,weatherlink.com 1.10,2013-07-25 16:34:00,
2013-07-25 12:49:00,73.3,53.0,30.07,SSW,212,0.0,-999.0,50,-99.99,,,0.00,weatherlink.com 1.10,2013-07-25 16:49:00,
2013-07-25 13:04:00,75.1,54.0,30.07,SSE,163,0.0,-999.0,48,-99.99,,,0.00,weatherlink.com 1.10,2013-07-25 17:04:00,
2013-07-25 13:19:00,73.4,54.0,30.07,WSW,240,0.0,-999.0,50,-99.99,,,0.00,weatherlink.com 1.10,2013-07-25 17:19:00,
2013-07-25 13:34:00,72.4,54.0,30.07,SW,225,4.0,-999.0,52,-99.99,,,0.00,weatherlink.com 1.10,2013-07-25 17:34:00,
2013-07-25 13:49:00,73.8,55.0,30.07,SW,223,3.0,-999.0,53,-99.99,,,0.00,weatherlink.com 1.10,2013-07-25 17:49:00,
2013-07-25 14:04:00,75.6,54.0,30.07,WSW,240,6.0,-999.0,47,-99.99,,,0.00,weatherlink.com 1.10,2013-07-25 18:04:00,
2013-07-25 14:19:00,76.7,54.0,30.06,South,186,0.0,-999.0,45,-99.99,,,0.00,weatherlink.com 1.10,2013-07-25 18:19:00,
2013-07-25 14:34:00,76.3,55.0,30.06,SW,219,4.0,-999.0,47,-99.99,,,0.00,weatherlink.com 1.10,2013-07-25 18:34:00,
2013-07-25 14:49:00,74.4,54.0,30.05,WSW,257,0.0,-999.0,50,-99.99,,,0.00,weatherlink.com 1.10,2013-07-25 18:49:00,
2013-07-25 15:04:00,75.9,54.0,30.05,WSW,244,5.0,-999.0,47,-99.99,,,0.00,weatherlink.com 1.10,2013-07-25 19:04:00,
2013-07-25 15:19:00,75.2,54.0,30.05,SW,229,5.0,-999.0,48,-99.99,,,0.00,weatherlink.com 1.10,2013-07-25 19:19:00,
2013-07-25 15:34:00,77.2,57.0,30.05,SW,222,9.0,-999.0,50,-99.99,,,0.00,weatherlink.com 1.10,2013-07-25 19:34:00,
2013-07-25 15:49:00,76.3,56.0,30.05,SSE,158,0.0,-999.0,49,-99.99,,,0.00,weatherlink.com 1.10,2013-07-25 19:49:00,
2013-07-25 16:04:00,74.3,55.0,30.05,SW,215,3.0,-999.0,52,-99.99,,,0.00,weatherlink.com 1.10,2013-07-25 20:04:00,
2013-07-25 16:19:00,74.4,56.0,30.05,WSW,247,6.0,-999.0,53,-99.99,,,0.00,weatherlink.com 1.10,2013-07-25 20:19:00,
2013-07-25 16:34:00,75.4,56.0,30.05,WNW,285,5.0,-999.0,52,-99.99,,,0.00,weatherlink.com 1.10,2013-07-25 20:34:00,
2013-07-25 16:49:00,74.5,57.0,30.04,West,263,5.0,-999.0,54,-99.99,,,0.00,weatherlink.com 1.10,2013-07-25 20:49:00,
2013-07-25 17:04:00,74.5,56.0,30.04,West,264,5.0,-999.0,53,-99.99,,,0.00,weatherlink.com 1.10,2013-07-25 21:04:00,
2013-07-25 17:19:00,74.8,56.0,30.03,SSW,205,4.0,-999.0,53,-99.99,,,0.00,weatherlink.com 1.10,2013-07-25 21:19:00,
2013-07-25 17:34:00,75.2,56.0,30.02,WSW,256,8.0,-999.0,52,-99.99,,,0.00,weatherlink.com 1.10,2013-07-25 21:34:00,
2013-07-25 17:49:00,75.1,56.0,30.02,SW,236,8.0,-999.0,51,-99.99,,,0.00,weatherlink.com 1.10,2013-07-25 21:49:00,
2013-07-25 18:04:00,75.0,56.0,30.02,SW,224,0.0,-999.0,52,-99.99,,,0.00,weatherlink.com 1.10,2013-07-25 22:04:00,
2013-07-25 18:19:00,75.1,57.0,30.03,SSW,211,8.0,-999.0,53,-99.99,,,0.00,weatherlink.com 1.10,2013-07-25 22:19:00,
2013-07-25 18:34:00,75.2,56.0,30.02,West,262,3.0,-999.0,51,-99.99,,,0.00,weatherlink.com 1.10,2013-07-25 22:34:00,
2013-07-25 18:49:00,74.9,56.0,30.03,WSW,238,7.0,-999.0,53,-99.99,,,0.00,weatherlink.com 1.10,2013-07-25 22:49:00,
2013-07-25 19:04:00,74.5,55.0,30.03,WSW,248,6.0,-999.0,50,-99.99,,,0.00,weatherlink.com 1.10,2013-07-25 23:04:00,
2013-07-25 19:19:00,72.7,54.0,30.03,WSW,249,3.0,-999.0,53,-99.99,,,0.00,weatherlink.com 1.10,2013-07-25 23:19:00,
2013-07-25 19:34:00,72.0,54.0,30.02,WSW,237,2.0,-999.0,53,-99.99,,,0.00,weatherlink.com 1.10,2013-07-25 23:34:00,
2013-07-25 19:49:00,71.4,54.0,30.02,SW,232,4.0,-999.0,55,-99.99,,,0.00,weatherlink.com 1.10,2013-07-25 23:49:00,
2013-07-25 20:04:00,70.6,54.0,30.02,WSW,244,1.0,-999.0,57,-99.99,,,0.00,weatherlink.com 1.10,2013-07-26 00:04:00,
2013-07-25 20:19:00,69.7,55.0,30.02,WSW,244,3.0,-999.0,60,-99.99,,,0.00,weatherlink.com 1.10,2013-07-26 00:19:00,
2013-07-25 20:34:00,68.8,55.0,30.02,WSW,245,5.0,-999.0,61,-99.99,,,0.00,weatherlink.com 1.10,2013-07-26 00:34:00,
2013-07-25 20:49:00,68.0,53.0,30.02,WSW,237,7.0,-999.0,60,-99.99,,,0.00,weatherlink.com 1.10,2013-07-26 00:49:00,
2013-07-25 21:04:00,67.0,53.0,30.02,SW,234,2.0,-999.0,61,-99.99,,,0.00,weatherlink.com 1.10,2013-07-26 01:04:00,
2013-07-25 21:19:00,65.7,54.0,30.02,SW,230,0.0,-999.0,65,-99.99,,,0.00,weatherlink.com 1.10,2013-07-26 01:19:00,
2013-07-25 21:34:00,64.8,54.0,30.02,SW,230,0.0,-999.0,68,-99.99,,,0.00,weatherlink.com 1.10,2013-07-26 01:34:00,
2013-07-25 21:49:00,63.7,54.0,30.02,SW,230,0.0,-999.0,70,-99.99,,,0.00,weatherlink.com 1.10,2013-07-26 01:49:00,
2013-07-25 22:04:00,62.7,54.0,30.03,SW,230,0.0,-999.0,73,-99.99,,,0.00,weatherlink.com 1.10,2013-07-26 02:04:00,
2013-07-25 22:19:00,61.7,54.0,30.02,SW,230,0.0,-999.0,75,-99.99,,,0.00,weatherlink.com 1.10,2013-07-26 02:19:00,
2013-07-25 22:34:00,60.2,54.0,30.02,SW,230,0.0,-999.0,79,-99.99,,,0.00,weatherlink.com 1.10,2013-07-26 02:34:00,
2013-07-25 22:49:00,58.5,54.0,30.04,SW,230,0.0,-999.0,84,-99.99,,,0.00,weatherlink.com 1.10,2013-07-26 02:49:00,
2013-07-25 23:04:00,57.2,53.0,30.04,SW,230,0.0,-999.0,86,-99.99,,,0.00,weatherlink.com 1.10,2013-07-26 03:04:00,
2013-07-25 23:19:00,56.3,53.0,30.04,SW,230,0.0,-999.0,87,-99.99,,,0.00,weatherlink.com 1.10,2013-07-26 03:19:00,
2013-07-25 23:34:00,55.7,53.0,30.04,SW,230,0.0,-999.0,89,-99.99,,,0.00,weatherlink.com 1.10,2013-07-26 03:34:00,
2013-07-25 23:49:00,55.3,53.0,30.03,SW,230,0.0,-999.0,90,-99.99,,,0.00,weatherlink.com 1.10,2013-07-26 03:49:00,